• Join FlightAware (Why Join?)
  • Login
  • US Flag 
01:14AM EDT


 

Airport Tracker/Info


-or-


 

Live Flight TrackerFlight Track Log ✈ EJA396 ✈ 26-Jul-2013 ✈ KBHM - KHOU

Flight Track Log - Related Links

Times and Time Zones

All times are in EDT time to prevent confusion due to time zone crossing. See the EJA396 flight status page for this flight to view local times or setup timezone preferences in your user account.

Time Position Orientation Groundspeed Altitude Reporting Facility
EDT Latitude Longitude Course Direction KTS MPH feet Rate Location/Type
05:33PM 33.5683 -86.7489 350° North 165 190 1,300  Level Atlanta Center
05:34PM 33.6222 -86.7606 350° North 241 277 4,800 4,140 Climbing Atlanta Center
05:35PM 33.6494 -86.8461 291° West 285 328 9,300 3,000 Climbing Atlanta Center
05:36PM 33.6500 -86.9136 271° West 281 323 10,100 2,280 Climbing Atlanta Center
05:37PM 33.6392 -87.0181 263° West 297 342 13,300 3,360 Climbing Atlanta Center
05:38PM 33.6281 -87.1300 263° West 326 375 16,900 3,420 Climbing Atlanta Center
05:39PM 33.5964 -87.2311 249° West 334 384 20,200 3,180 Climbing Atlanta Center
05:40PM 33.5300 -87.3917 244° Southwest 321 369 25,400 2,160 Climbing Memphis Center
05:41PM 33.4844 -87.5003 243° Southwest 332 382 26,000 300 Climbing Memphis Center
05:42PM 33.4331 -87.6242 244° Southwest 380 437 26,000  Level Memphis Center
05:43PM 33.3814 -87.7525 244° Southwest 419 482 26,000 1,200 Level Memphis Center
05:44PM 33.3275 -87.8758 242° Southwest 426 490 28,500 2,700 Climbing Memphis Center
05:45PM 33.2797 -87.9892 243° Southwest 411 473 31,500 2,700 Climbing Memphis Center
05:46PM 33.2339 -88.0997 244° Southwest 398 458 34,000 1,260 Climbing Memphis Center
05:47PM 33.1958 -88.1925 244° Southwest 389 448 34,100 1,500 Climbing Memphis Center
05:48PM 33.1436 -88.3228 244° Southwest 389 448 37,000 2,400 Climbing Memphis Center
05:49PM 33.0994 -88.4206 242° Southwest 372 428 39,000 1,500 Climbing Memphis Center
05:50PM 33.0592 -88.5206 244° Southwest 352 405 40,000 480 Climbing Memphis Center
05:51PM 33.0167 -88.6156 242° Southwest 334 384 40,000  Level Memphis Center
05:52PM 32.9742 -88.7181 244° Southwest 334 384 40,000  Level Memphis Center
05:53PM 32.9275 -88.8228 242° Southwest 346 398 40,000  Level Memphis Center
05:54PM 32.8789 -88.9375 243° Southwest 372 428 40,000  Level Memphis Center
05:55PM 32.8217 -89.0694 243° Southwest 402 463 40,000  Level Memphis Center
05:56PM 32.7708 -89.1861 243° Southwest 402 463 40,000  Level Memphis Center
05:57PM 32.7175 -89.3006 241° Southwest 402 463 40,000  Level Memphis Center
05:58PM 32.6661 -89.4169 242° Southwest 402 463 40,000  Level Memphis Center
05:59PM 32.6150 -89.5358 243° Southwest 402 463 40,000  Level Memphis Center
06:00PM 32.5633 -89.6522 242° Southwest 402 463 40,000  Level Memphis Center
06:01PM 32.5181 -89.7536 242° Southwest 402 463 40,000  Level Memphis Center
06:02PM 32.4664 -89.8722 243° Southwest 402 463 40,000  Level Memphis Center
06:03PM 32.4147 -89.9881 242° Southwest 402 463 40,000  Level Memphis Center
06:04PM 32.3564 -90.1189 242° Southwest 407 468 40,000 120 Level Memphis Center
06:05PM 32.3044 -90.2344 242° Southwest 407 468 40,300 480 Climbing Memphis Center
06:06PM 32.2522 -90.3500 242° Southwest 407 468 41,000 300 Climbing Memphis Center
06:07PM 32.2000 -90.4653 242° Southwest 407 468 41,000  Level Memphis Center
06:08PM 32.1478 -90.5831 242° Southwest 407 468 41,000  Level Memphis Center
06:09PM 32.1064 -90.6767 242° Southwest 405 466 41,000  Level Houston Center
06:10PM 32.0483 -90.8022 241° Southwest 403 464 41,000  Level Houston Center
06:11PM 31.9953 -90.9192 242° Southwest 404 465 41,000  Level Houston Center
06:12PM 31.9425 -91.0347 242° Southwest 403 464 41,000  Level Houston Center
06:13PM 31.8883 -91.1522 242° Southwest 408 470 41,000  Level Houston Center
06:14PM 31.8339 -91.2683 241° Southwest 406 467 41,000  Level Houston Center
06:15PM 31.7714 -91.4086 242° Southwest 406 467 41,000  Level Houston Center
06:16PM 31.7167 -91.5236 241° Southwest 404 465 41,000  Level Houston Center
06:17PM 31.6631 -91.6389 241° Southwest 403 464 41,000  Level Houston Center
06:18PM 31.6108 -91.7544 242° Southwest 403 464 41,000  Level Houston Center
06:20PM 31.5653 -91.8739 246° West 401 461 41,000  Level Houston Center
06:21PM 31.5181 -91.9922 245° Southwest 403 464 41,000  Level Houston Center
06:22PM 31.4664 -92.1250 246° West 389 448 41,000  Level Houston Center
06:23PM 31.4219 -92.2364 245° Southwest 380 437 41,000  Level Houston Center
06:24PM 31.3778 -92.3492 245° Southwest 383 441 41,000  Level Houston Center
06:25PM 31.3306 -92.4664 245° Southwest 399 459 41,000  Level Houston Center
06:26PM 31.2742 -92.6089 245° Southwest 403 464 41,000  Level Houston Center
06:27PM 31.2269 -92.7306 246° West 410 472 41,000  Level Houston Center
06:28PM 31.1783 -92.8519 245° Southwest 415 478 41,000  Level Houston Center
06:29PM 31.1294 -92.9719 245° Southwest 413 475 41,000  Level Houston Center
06:30PM 31.0808 -93.0936 245° Southwest 415 478 41,000 -60 Level Houston Center
06:31PM 31.0231 -93.2406 245° Southwest 417 480 40,900 -900 Descending Houston Center
06:32PM 30.9725 -93.3647 245° Southwest 423 487 39,200 -1,800 Descending Houston Center
06:33PM 30.9203 -93.4928 245° Southwest 436 502 37,200 -1,860 Descending Houston Center
06:34PM 30.8664 -93.6250 245° Southwest 449 517 35,400 -1,800 Descending Houston Center
06:35PM 30.8111 -93.7586 244° Southwest 461 531 33,600 -1,920 Descending Houston Center
06:36PM 30.7433 -93.9225 244° Southwest 472 543 31,500 -1,920 Descending Houston Center
06:37PM 30.6869 -94.0592 244° Southwest 473 544 29,700 -1,800 Descending Houston Center
06:38PM 30.6306 -94.1964 245° Southwest 474 545 27,900 -2,400 Descending Houston Center
06:39PM 30.5742 -94.3289 244° Southwest 466 536 24,700 -3,000 Descending Houston Center
06:40PM 30.5214 -94.4547 244° Southwest 447 514 21,700 -2,880 Descending Houston Center
06:41PM 30.4578 -94.5753 239° Southwest 405 466 18,800 -2,760 Descending Houston Center
06:42PM 30.3944 -94.6742 233° Southwest 395 455 16,100 -2,520 Descending Houston Center
06:43PM 30.3342 -94.7681 233° Southwest 370 426 13,600 -1,980 Descending Houston Center
06:44PM 30.2689 -94.8689 233° Southwest 329 379 12,100 -1,500 Descending Houston Center
06:46PM 30.2019 -94.9686 232° Southwest 329 379 10,300 -1,020 Descending Houston Center
06:46PM 30.1600 -95.0358 234° Southwest 324 373 10,000 -180 Descending Houston Center
06:47PM 30.0978 -95.1025 223° Southwest 315 362 10,000  Level Houston Center
06:48PM 30.0108 -95.1367 199° South 327 376 10,000  Level Houston Center
06:50PM 29.9103 -95.1761 199° South 321 369 10,000 -840 Level Houston Center
06:51PM 29.8375 -95.2050 199° South 284 327 8,300 -1,740 Descending Houston Center
06:52PM 29.7644 -95.2347 199° South 280 322 6,500 -1,140 Descending Houston Center
06:53PM 29.7003 -95.2600 199° South 251 289 6,000 -240 Descending Houston Center
06:54PM 29.6300 -95.2994 206° Southwest 231 266 6,000  Level Houston Center
06:55PM 29.6106 -95.3656 251° West 238 274 6,000  Level Houston Center
06:56PM 29.6064 -95.4319 266° West 231 266 6,000 -180 Level Houston Center
06:57PM 29.6458 -95.4947 306° West 232 267 5,700 -900 Descending Houston Center
06:58PM 29.7031 -95.4997 356° North 255 293 4,200 -1,440 Descending Houston Center
06:59PM 29.7525 -95.4433 45° Northeast 228 262 2,800 -1,080 Descending Houston Center
07:00PM 29.7392 -95.3897 106° East 180 207 2,000 -600 Descending Houston Center
07:01PM 29.7042 -95.3506 136° Southeast 173 199 1,600 -600 Descending Houston Center
07:02PM 29.6733 -95.3133 134° Southeast 154 177 800 -720 Descending Houston Center
07:03PM 29.6511 -95.2856 133° Southeast 138 159 200 -600 Descending Houston Center